sensor_id;sensor_type;location;lat;lon;timestamp;P1;durP1;ratioP1;P2;durP2;ratioP2
52858;SDS011;38721;53.098;6.596;2023-05-17T00:00:58;21.83;;;4.25;;
52858;SDS011;38721;53.098;6.596;2023-05-17T00:03:23;19.70;;;4.10;;
52858;SDS011;38721;53.098;6.596;2023-05-17T00:05:49;20.73;;;4.28;;
52858;SDS011;38721;53.098;6.596;2023-05-17T00:08:15;20.45;;;4.70;;
52858;SDS011;38721;53.098;6.596;2023-05-17T00:10:41;20.92;;;4.50;;
52858;SDS011;38721;53.098;6.596;2023-05-17T00:13:07;29.02;;;4.20;;
52858;SDS011;38721;53.098;6.596;2023-05-17T00:15:33;19.23;;;3.85;;
52858;SDS011;38721;53.098;6.596;2023-05-17T00:17:58;20.42;;;3.88;;
52858;SDS011;38721;53.098;6.596;2023-05-17T00:20:24;25.92;;;4.13;;
52858;SDS011;38721;53.098;6.596;2023-05-17T00:22:49;24.02;;;4.53;;
52858;SDS011;38721;53.098;6.596;2023-05-17T00:25:15;22.42;;;4.25;;
52858;SDS011;38721;53.098;6.596;2023-05-17T00:27:41;18.50;;;3.97;;
52858;SDS011;38721;53.098;6.596;2023-05-17T00:30:06;19.75;;;4.50;;
52858;SDS011;38721;53.098;6.596;2023-05-17T00:32:32;20.55;;;5.15;;
52858;SDS011;38721;53.098;6.596;2023-05-17T00:34:58;17.83;;;4.32;;
52858;SDS011;38721;53.098;6.596;2023-05-17T00:37:24;21.15;;;3.67;;
52858;SDS011;38721;53.098;6.596;2023-05-17T00:39:49;19.40;;;4.38;;
52858;SDS011;38721;53.098;6.596;2023-05-17T00:42:16;19.35;;;3.92;;
52858;SDS011;38721;53.098;6.596;2023-05-17T00:44:42;17.05;;;4.45;;
52858;SDS011;38721;53.098;6.596;2023-05-17T00:47:08;19.83;;;4.40;;
52858;SDS011;38721;53.098;6.596;2023-05-17T00:49:34;22.45;;;4.70;;
52858;SDS011;38721;53.098;6.596;2023-05-17T00:51:59;28.30;;;4.93;;
52858;SDS011;38721;53.098;6.596;2023-05-17T00:54:25;18.15;;;4.13;;
52858;SDS011;38721;53.098;6.596;2023-05-17T00:56:52;15.52;;;3.78;;
52858;SDS011;38721;53.098;6.596;2023-05-17T00:59:18;22.10;;;4.20;;
52858;SDS011;38721;53.098;6.596;2023-05-17T01:01:46;17.98;;;4.55;;
52858;SDS011;38721;53.098;6.596;2023-05-17T01:04:12;15.00;;;4.28;;
52858;SDS011;38721;53.098;6.596;2023-05-17T01:06:38;20.23;;;4.28;;
52858;SDS011;38721;53.098;6.596;2023-05-17T01:09:04;20.75;;;4.07;;
52858;SDS011;38721;53.098;6.596;2023-05-17T01:11:54;18.90;;;4.22;;
52858;SDS011;38721;53.098;6.596;2023-05-17T01:14:32;21.35;;;4.40;;
52858;SDS011;38721;53.098;6.596;2023-05-17T01:17:26;20.30;;;3.97;;
52858;SDS011;38721;53.098;6.596;2023-05-17T01:20:01;20.30;;;4.13;;
52858;SDS011;38721;53.098;6.596;2023-05-17T01:23:09;25.17;;;4.70;;
52858;SDS011;38721;53.098;6.596;2023-05-17T01:28:10;13.32;;;4.28;;
52858;SDS011;38721;53.098;6.596;2023-05-17T01:30:37;23.55;;;3.92;;
52858;SDS011;38721;53.098;6.596;2023-05-17T01:33:03;20.42;;;4.55;;
52858;SDS011;38721;53.098;6.596;2023-05-17T01:35:30;29.50;;;5.13;;
52858;SDS011;38721;53.098;6.596;2023-05-17T01:37:56;23.15;;;4.30;;
52858;SDS011;38721;53.098;6.596;2023-05-17T01:40:21;22.25;;;4.03;;
52858;SDS011;38721;53.098;6.596;2023-05-17T01:42:49;22.20;;;4.50;;
52858;SDS011;38721;53.098;6.596;2023-05-17T01:45:20;17.95;;;4.18;;
52858;SDS011;38721;53.098;6.596;2023-05-17T01:47:59;24.05;;;4.05;;
52858;SDS011;38721;53.098;6.596;2023-05-17T01:50:30;17.75;;;3.92;;
52858;SDS011;38721;53.098;6.596;2023-05-17T01:53:01;20.40;;;3.97;;
52858;SDS011;38721;53.098;6.596;2023-05-17T01:55:50;22.70;;;4.40;;
52858;SDS011;38721;53.098;6.596;2023-05-17T01:58:20;15.35;;;4.15;;
52858;SDS011;38721;53.098;6.596;2023-05-17T02:00:49;18.02;;;4.13;;
52858;SDS011;38721;53.098;6.596;2023-05-17T02:03:18;17.77;;;3.28;;
52858;SDS011;38721;53.098;6.596;2023-05-17T02:05:44;20.02;;;4.53;;
52858;SDS011;38721;53.098;6.596;2023-05-17T02:08:10;19.52;;;3.67;;
52858;SDS011;38721;53.098;6.596;2023-05-17T02:10:36;21.45;;;4.10;;
52858;SDS011;38721;53.098;6.596;2023-05-17T02:13:02;16.02;;;4.00;;
52858;SDS011;38721;53.098;6.596;2023-05-17T02:15:27;18.67;;;3.40;;
52858;SDS011;38721;53.098;6.596;2023-05-17T02:17:53;15.10;;;4.00;;
52858;SDS011;38721;53.098;6.596;2023-05-17T02:20:21;18.08;;;4.07;;
52858;SDS011;38721;53.098;6.596;2023-05-17T02:22:47;23.00;;;3.72;;
52858;SDS011;38721;53.098;6.596;2023-05-17T02:25:13;15.80;;;3.95;;
52858;SDS011;38721;53.098;6.596;2023-05-17T02:27:38;13.70;;;3.33;;
52858;SDS011;38721;53.098;6.596;2023-05-17T02:30:04;17.48;;;3.95;;
52858;SDS011;38721;53.098;6.596;2023-05-17T02:32:31;16.02;;;3.40;;
52858;SDS011;38721;53.098;6.596;2023-05-17T02:34:57;16.20;;;3.50;;
52858;SDS011;38721;53.098;6.596;2023-05-17T02:37:25;16.63;;;3.78;;
52858;SDS011;38721;53.098;6.596;2023-05-17T02:39:51;14.82;;;3.35;;
52858;SDS011;38721;53.098;6.596;2023-05-17T02:42:17;16.40;;;3.78;;
52858;SDS011;38721;53.098;6.596;2023-05-17T02:44:45;12.65;;;3.13;;
52858;SDS011;38721;53.098;6.596;2023-05-17T02:47:16;14.65;;;3.63;;
52858;SDS011;38721;53.098;6.596;2023-05-17T02:49:45;14.65;;;3.05;;
52858;SDS011;38721;53.098;6.596;2023-05-17T02:52:11;13.38;;;3.67;;
52858;SDS011;38721;53.098;6.596;2023-05-17T02:54:36;16.25;;;3.47;;
52858;SDS011;38721;53.098;6.596;2023-05-17T02:57:02;13.18;;;3.22;;
52858;SDS011;38721;53.098;6.596;2023-05-17T02:59:28;14.05;;;3.30;;
52858;SDS011;38721;53.098;6.596;2023-05-17T03:01:54;18.38;;;3.80;;
52858;SDS011;38721;53.098;6.596;2023-05-17T03:04:23;10.57;;;3.00;;
52858;SDS011;38721;53.098;6.596;2023-05-17T03:06:48;18.38;;;3.47;;
52858;SDS011;38721;53.098;6.596;2023-05-17T03:09:14;15.40;;;3.67;;
52858;SDS011;38721;53.098;6.596;2023-05-17T03:11:40;11.05;;;3.15;;
52858;SDS011;38721;53.098;6.596;2023-05-17T03:14:06;13.85;;;3.65;;
52858;SDS011;38721;53.098;6.596;2023-05-17T03:16:31;16.20;;;2.97;;
52858;SDS011;38721;53.098;6.596;2023-05-17T03:18:57;15.15;;;3.33;;
52858;SDS011;38721;53.098;6.596;2023-05-17T03:21:23;17.92;;;3.10;;
52858;SDS011;38721;53.098;6.596;2023-05-17T03:23:48;10.02;;;2.85;;
52858;SDS011;38721;53.098;6.596;2023-05-17T03:26:14;10.48;;;2.63;;
52858;SDS011;38721;53.098;6.596;2023-05-17T03:28:40;17.33;;;2.88;;
52858;SDS011;38721;53.098;6.596;2023-05-17T03:31:05;11.95;;;3.33;;
52858;SDS011;38721;53.098;6.596;2023-05-17T03:33:31;19.58;;;3.88;;
52858;SDS011;38721;53.098;6.596;2023-05-17T03:35:57;12.32;;;2.85;;
52858;SDS011;38721;53.098;6.596;2023-05-17T03:38:22;9.93;;;2.45;;
52858;SDS011;38721;53.098;6.596;2023-05-17T03:40:49;13.73;;;3.05;;
52858;SDS011;38721;53.098;6.596;2023-05-17T03:43:16;12.60;;;3.85;;
52858;SDS011;38721;53.098;6.596;2023-05-17T03:45:42;14.80;;;3.05;;
52858;SDS011;38721;53.098;6.596;2023-05-17T03:48:07;9.63;;;2.85;;
52858;SDS011;38721;53.098;6.596;2023-05-17T03:50:33;11.63;;;2.90;;
52858;SDS011;38721;53.098;6.596;2023-05-17T03:53:01;11.43;;;2.45;;
52858;SDS011;38721;53.098;6.596;2023-05-17T03:55:27;13.75;;;3.30;;
52858;SDS011;38721;53.098;6.596;2023-05-17T03:57:55;8.57;;;2.58;;
52858;SDS011;38721;53.098;6.596;2023-05-17T04:00:21;9.45;;;2.30;;
52858;SDS011;38721;53.098;6.596;2023-05-17T04:02:49;13.00;;;2.50;;
52858;SDS011;38721;53.098;6.596;2023-05-17T04:05:15;11.07;;;2.30;;
52858;SDS011;38721;53.098;6.596;2023-05-17T04:07:41;15.75;;;2.70;;
52858;SDS011;38721;53.098;6.596;2023-05-17T04:10:07;12.23;;;2.47;;
52858;SDS011;38721;53.098;6.596;2023-05-17T04:12:33;13.20;;;2.40;;
52858;SDS011;38721;53.098;6.596;2023-05-17T04:14:59;15.02;;;2.65;;
52858;SDS011;38721;53.098;6.596;2023-05-17T04:17:26;8.93;;;2.13;;
52858;SDS011;38721;53.098;6.596;2023-05-17T04:19:52;9.30;;;2.00;;
52858;SDS011;38721;53.098;6.596;2023-05-17T04:22:18;12.43;;;2.40;;
52858;SDS011;38721;53.098;6.596;2023-05-17T04:24:47;9.52;;;2.30;;
52858;SDS011;38721;53.098;6.596;2023-05-17T04:27:14;7.22;;;2.35;;
52858;SDS011;38721;53.098;6.596;2023-05-17T04:29:40;8.23;;;2.53;;
52858;SDS011;38721;53.098;6.596;2023-05-17T04:32:06;11.98;;;2.72;;
52858;SDS011;38721;53.098;6.596;2023-05-17T04:34:32;6.68;;;2.13;;
52858;SDS011;38721;53.098;6.596;2023-05-17T04:36:57;11.10;;;1.83;;
52858;SDS011;38721;53.098;6.596;2023-05-17T04:39:23;10.02;;;1.90;;
52858;SDS011;38721;53.098;6.596;2023-05-17T04:41:49;9.25;;;2.00;;
52858;SDS011;38721;53.098;6.596;2023-05-17T04:44:15;9.57;;;1.92;;
52858;SDS011;38721;53.098;6.596;2023-05-17T04:46:41;12.82;;;2.13;;
52858;SDS011;38721;53.098;6.596;2023-05-17T04:49:10;11.85;;;2.17;;
52858;SDS011;38721;53.098;6.596;2023-05-17T04:51:36;9.18;;;1.92;;
52858;SDS011;38721;53.098;6.596;2023-05-17T04:54:01;11.93;;;2.60;;
52858;SDS011;38721;53.098;6.596;2023-05-17T04:56:30;7.93;;;2.05;;
52858;SDS011;38721;53.098;6.596;2023-05-17T04:58:57;9.95;;;1.90;;
52858;SDS011;38721;53.098;6.596;2023-05-17T05:01:25;9.82;;;2.00;;
52858;SDS011;38721;53.098;6.596;2023-05-17T05:03:51;10.98;;;2.08;;
52858;SDS011;38721;53.098;6.596;2023-05-17T05:06:16;9.25;;;2.33;;
52858;SDS011;38721;53.098;6.596;2023-05-17T05:08:42;8.40;;;2.83;;
52858;SDS011;38721;53.098;6.596;2023-05-17T05:11:08;7.13;;;1.67;;
52858;SDS011;38721;53.098;6.596;2023-05-17T05:13:34;10.38;;;1.75;;
52858;SDS011;38721;53.098;6.596;2023-05-17T05:16:05;9.48;;;1.45;;
52858;SDS011;38721;53.098;6.596;2023-05-17T05:18:31;9.52;;;1.70;;
52858;SDS011;38721;53.098;6.596;2023-05-17T05:20:58;8.98;;;1.77;;
52858;SDS011;38721;53.098;6.596;2023-05-17T05:23:24;10.45;;;2.25;;
52858;SDS011;38721;53.098;6.596;2023-05-17T05:25:49;11.40;;;2.03;;
52858;SDS011;38721;53.098;6.596;2023-05-17T05:28:15;12.77;;;1.95;;
52858;SDS011;38721;53.098;6.596;2023-05-17T05:30:41;7.28;;;1.60;;
52858;SDS011;38721;53.098;6.596;2023-05-17T05:33:09;9.32;;;1.55;;
52858;SDS011;38721;53.098;6.596;2023-05-17T05:35:35;6.78;;;1.92;;
52858;SDS011;38721;53.098;6.596;2023-05-17T05:38:00;4.63;;;1.30;;
52858;SDS011;38721;53.098;6.596;2023-05-17T05:40:26;8.27;;;1.80;;
52858;SDS011;38721;53.098;6.596;2023-05-17T05:42:52;8.95;;;1.90;;
52858;SDS011;38721;53.098;6.596;2023-05-17T05:45:17;7.68;;;1.73;;
52858;SDS011;38721;53.098;6.596;2023-05-17T05:47:43;11.27;;;2.50;;
52858;SDS011;38721;53.098;6.596;2023-05-17T05:50:09;8.23;;;1.73;;
52858;SDS011;38721;53.098;6.596;2023-05-17T05:52:35;11.63;;;2.20;;
52858;SDS011;38721;53.098;6.596;2023-05-17T05:55:01;12.02;;;1.75;;
52858;SDS011;38721;53.098;6.596;2023-05-17T05:57:26;10.07;;;1.98;;
52858;SDS011;38721;53.098;6.596;2023-05-17T05:59:52;8.48;;;1.95;;
52858;SDS011;38721;53.098;6.596;2023-05-17T06:02:18;7.28;;;2.75;;
52858;SDS011;38721;53.098;6.596;2023-05-17T06:04:45;8.60;;;2.22;;
52858;SDS011;38721;53.098;6.596;2023-05-17T06:07:12;16.02;;;2.65;;
52858;SDS011;38721;53.098;6.596;2023-05-17T06:09:41;12.27;;;2.00;;
52858;SDS011;38721;53.098;6.596;2023-05-17T06:12:07;8.32;;;2.03;;
52858;SDS011;38721;53.098;6.596;2023-05-17T06:14:33;11.13;;;2.38;;
52858;SDS011;38721;53.098;6.596;2023-05-17T06:17:00;13.43;;;2.38;;
52858;SDS011;38721;53.098;6.596;2023-05-17T06:19:25;9.75;;;2.67;;
52858;SDS011;38721;53.098;6.596;2023-05-17T06:21:51;16.52;;;2.60;;
52858;SDS011;38721;53.098;6.596;2023-05-17T06:24:16;11.48;;;2.65;;
52858;SDS011;38721;53.098;6.596;2023-05-17T06:26:45;15.55;;;2.95;;
52858;SDS011;38721;53.098;6.596;2023-05-17T06:29:11;15.52;;;2.75;;
52858;SDS011;38721;53.098;6.596;2023-05-17T06:31:37;11.82;;;2.38;;
52858;SDS011;38721;53.098;6.596;2023-05-17T06:34:02;12.55;;;2.72;;
52858;SDS011;38721;53.098;6.596;2023-05-17T06:36:28;10.88;;;2.50;;
52858;SDS011;38721;53.098;6.596;2023-05-17T06:38:54;13.43;;;2.78;;
52858;SDS011;38721;53.098;6.596;2023-05-17T06:41:20;9.43;;;3.30;;
52858;SDS011;38721;53.098;6.596;2023-05-17T06:43:45;14.00;;;2.83;;
52858;SDS011;38721;53.098;6.596;2023-05-17T06:46:11;11.77;;;2.60;;
52858;SDS011;38721;53.098;6.596;2023-05-17T06:48:37;7.15;;;2.05;;
52858;SDS011;38721;53.098;6.596;2023-05-17T06:51:02;12.80;;;2.67;;
52858;SDS011;38721;53.098;6.596;2023-05-17T06:53:28;11.02;;;2.80;;
52858;SDS011;38721;53.098;6.596;2023-05-17T06:55:54;15.15;;;2.75;;
52858;SDS011;38721;53.098;6.596;2023-05-17T06:58:22;17.85;;;2.45;;
52858;SDS011;38721;53.098;6.596;2023-05-17T07:00:48;17.38;;;2.97;;
52858;SDS011;38721;53.098;6.596;2023-05-17T07:03:13;10.40;;;2.78;;
52858;SDS011;38721;53.098;6.596;2023-05-17T07:05:42;13.30;;;3.08;;
52858;SDS011;38721;53.098;6.596;2023-05-17T07:08:08;17.40;;;2.90;;
52858;SDS011;38721;53.098;6.596;2023-05-17T07:10:36;13.93;;;2.80;;
52858;SDS011;38721;53.098;6.596;2023-05-17T07:13:02;13.30;;;2.75;;
52858;SDS011;38721;53.098;6.596;2023-05-17T07:15:27;13.70;;;3.60;;
52858;SDS011;38721;53.098;6.596;2023-05-17T07:17:53;12.00;;;2.85;;
52858;SDS011;38721;53.098;6.596;2023-05-17T07:20:19;11.98;;;2.63;;
52858;SDS011;38721;53.098;6.596;2023-05-17T07:22:44;16.45;;;2.90;;
52858;SDS011;38721;53.098;6.596;2023-05-17T07:25:10;13.50;;;2.53;;
52858;SDS011;38721;53.098;6.596;2023-05-17T07:27:36;19.80;;;3.30;;
52858;SDS011;38721;53.098;6.596;2023-05-17T07:30:02;7.05;;;2.00;;
52858;SDS011;38721;53.098;6.596;2023-05-17T07:32:28;17.13;;;3.10;;
52858;SDS011;38721;53.098;6.596;2023-05-17T07:34:54;16.08;;;3.25;;
52858;SDS011;38721;53.098;6.596;2023-05-17T07:37:20;13.65;;;2.33;;
52858;SDS011;38721;53.098;6.596;2023-05-17T07:39:47;10.30;;;2.72;;
52858;SDS011;38721;53.098;6.596;2023-05-17T07:42:12;12.05;;;2.30;;
52858;SDS011;38721;53.098;6.596;2023-05-17T07:44:38;11.75;;;2.58;;
52858;SDS011;38721;53.098;6.596;2023-05-17T07:47:04;10.23;;;2.20;;
52858;SDS011;38721;53.098;6.596;2023-05-17T07:49:30;15.80;;;2.75;;
52858;SDS011;38721;53.098;6.596;2023-05-17T07:51:56;10.30;;;2.58;;
52858;SDS011;38721;53.098;6.596;2023-05-17T07:54:22;13.00;;;2.47;;
52858;SDS011;38721;53.098;6.596;2023-05-17T07:56:48;14.63;;;3.05;;
52858;SDS011;38721;53.098;6.596;2023-05-17T07:59:14;13.93;;;2.45;;
52858;SDS011;38721;53.098;6.596;2023-05-17T08:01:40;7.32;;;2.30;;
52858;SDS011;38721;53.098;6.596;2023-05-17T08:04:05;10.43;;;2.67;;
52858;SDS011;38721;53.098;6.596;2023-05-17T08:06:31;11.85;;;2.50;;
52858;SDS011;38721;53.098;6.596;2023-05-17T08:08:56;14.25;;;2.40;;
52858;SDS011;38721;53.098;6.596;2023-05-17T08:11:22;11.02;;;2.72;;
52858;SDS011;38721;53.098;6.596;2023-05-17T08:13:48;11.98;;;2.53;;
52858;SDS011;38721;53.098;6.596;2023-05-17T08:16:13;15.10;;;2.95;;
52858;SDS011;38721;53.098;6.596;2023-05-17T08:18:40;20.13;;;2.67;;
52858;SDS011;38721;53.098;6.596;2023-05-17T08:21:06;11.90;;;2.33;;
52858;SDS011;38721;53.098;6.596;2023-05-17T08:23:32;13.15;;;2.55;;
52858;SDS011;38721;53.098;6.596;2023-05-17T08:25:57;11.48;;;2.60;;
52858;SDS011;38721;53.098;6.596;2023-05-17T08:28:23;11.25;;;2.60;;
52858;SDS011;38721;53.098;6.596;2023-05-17T08:30:49;11.98;;;2.60;;
52858;SDS011;38721;53.098;6.596;2023-05-17T08:33:14;14.07;;;2.42;;
52858;SDS011;38721;53.098;6.596;2023-05-17T08:35:40;9.60;;;2.38;;
52858;SDS011;38721;53.098;6.596;2023-05-17T08:38:06;12.60;;;2.47;;
52858;SDS011;38721;53.098;6.596;2023-05-17T08:40:32;18.33;;;2.92;;
52858;SDS011;38721;53.098;6.596;2023-05-17T08:42:58;12.90;;;3.20;;
52858;SDS011;38721;53.098;6.596;2023-05-17T08:45:25;10.10;;;2.10;;
52858;SDS011;38721;53.098;6.596;2023-05-17T08:47:51;11.75;;;2.90;;
52858;SDS011;38721;53.098;6.596;2023-05-17T08:50:18;9.68;;;2.40;;
52858;SDS011;38721;53.098;6.596;2023-05-17T08:52:44;11.85;;;1.90;;
52858;SDS011;38721;53.098;6.596;2023-05-17T08:55:10;9.30;;;2.20;;
52858;SDS011;38721;53.098;6.596;2023-05-17T08:57:40;9.13;;;2.80;;
52858;SDS011;38721;53.098;6.596;2023-05-17T09:00:07;8.43;;;2.28;;
52858;SDS011;38721;53.098;6.596;2023-05-17T09:02:37;10.57;;;2.33;;
52858;SDS011;38721;53.098;6.596;2023-05-17T09:05:06;10.07;;;2.53;;
52858;SDS011;38721;53.098;6.596;2023-05-17T09:07:34;8.15;;;2.15;;
52858;SDS011;38721;53.098;6.596;2023-05-17T09:10:00;9.35;;;2.03;;
52858;SDS011;38721;53.098;6.596;2023-05-17T09:12:33;10.48;;;2.20;;
52858;SDS011;38721;53.098;6.596;2023-05-17T09:15:18;9.50;;;2.05;;
52858;SDS011;38721;53.098;6.596;2023-05-17T09:17:50;12.63;;;1.90;;
52858;SDS011;38721;53.098;6.596;2023-05-17T09:20:21;11.10;;;2.08;;
52858;SDS011;38721;53.098;6.596;2023-05-17T09:23:09;11.73;;;2.10;;
52858;SDS011;38721;53.098;6.596;2023-05-17T09:28:35;13.25;;;2.40;;
52858;SDS011;38721;53.098;6.596;2023-05-17T09:31:06;7.10;;;2.13;;
52858;SDS011;38721;53.098;6.596;2023-05-17T09:33:33;10.80;;;2.00;;
52858;SDS011;38721;53.098;6.596;2023-05-17T09:36:21;7.05;;;2.00;;
52858;SDS011;38721;53.098;6.596;2023-05-17T09:38:54;9.75;;;2.30;;
52858;SDS011;38721;53.098;6.596;2023-05-17T09:41:39;15.25;;;2.40;;
52858;SDS011;38721;53.098;6.596;2023-05-17T09:44:10;8.27;;;1.95;;
52858;SDS011;38721;53.098;6.596;2023-05-17T09:46:45;10.32;;;2.35;;
52858;SDS011;38721;53.098;6.596;2023-05-17T09:49:12;6.78;;;2.05;;
52858;SDS011;38721;53.098;6.596;2023-05-17T09:51:45;10.55;;;1.80;;
52858;SDS011;38721;53.098;6.596;2023-05-17T09:54:14;8.18;;;1.83;;
52858;SDS011;38721;53.098;6.596;2023-05-17T09:56:42;8.10;;;2.03;;
52858;SDS011;38721;53.098;6.596;2023-05-17T09:59:12;5.28;;;1.58;;
52858;SDS011;38721;53.098;6.596;2023-05-17T10:01:46;6.28;;;1.80;;
52858;SDS011;38721;53.098;6.596;2023-05-17T10:04:14;8.90;;;1.92;;
52858;SDS011;38721;53.098;6.596;2023-05-17T10:06:44;6.97;;;1.92;;
52858;SDS011;38721;53.098;6.596;2023-05-17T10:09:11;13.07;;;1.98;;
52858;SDS011;38721;53.098;6.596;2023-05-17T10:11:39;10.20;;;1.92;;
52858;SDS011;38721;53.098;6.596;2023-05-17T10:14:22;8.82;;;1.80;;
52858;SDS011;38721;53.098;6.596;2023-05-17T10:16:54;8.75;;;1.98;;
52858;SDS011;38721;53.098;6.596;2023-05-17T10:19:21;11.30;;;1.88;;
52858;SDS011;38721;53.098;6.596;2023-05-17T10:21:51;5.25;;;1.88;;
52858;SDS011;38721;53.098;6.596;2023-05-17T10:24:19;8.95;;;1.90;;
52858;SDS011;38721;53.098;6.596;2023-05-17T10:26:45;8.40;;;2.00;;
52858;SDS011;38721;53.098;6.596;2023-05-17T10:29:14;10.05;;;2.10;;
52858;SDS011;38721;53.098;6.596;2023-05-17T10:31:40;5.40;;;1.60;;
52858;SDS011;38721;53.098;6.596;2023-05-17T10:34:12;8.38;;;1.85;;
52858;SDS011;38721;53.098;6.596;2023-05-17T10:36:41;6.43;;;1.83;;
52858;SDS011;38721;53.098;6.596;2023-05-17T10:39:08;9.07;;;1.95;;
52858;SDS011;38721;53.098;6.596;2023-05-17T10:41:35;9.25;;;1.77;;
52858;SDS011;38721;53.098;6.596;2023-05-17T10:44:06;7.53;;;1.73;;
52858;SDS011;38721;53.098;6.596;2023-05-17T10:46:34;7.43;;;1.73;;
52858;SDS011;38721;53.098;6.596;2023-05-17T10:49:01;4.72;;;1.60;;
52858;SDS011;38721;53.098;6.596;2023-05-17T10:51:36;9.15;;;1.70;;
52858;SDS011;38721;53.098;6.596;2023-05-17T10:54:12;5.13;;;1.60;;
52858;SDS011;38721;53.098;6.596;2023-05-17T10:56:49;8.50;;;1.65;;
52858;SDS011;38721;53.098;6.596;2023-05-17T10:59:23;7.30;;;1.70;;
52858;SDS011;38721;53.098;6.596;2023-05-17T11:01:57;7.43;;;2.30;;
52858;SDS011;38721;53.098;6.596;2023-05-17T11:09:42;7.00;;;1.75;;
52858;SDS011;38721;53.098;6.596;2023-05-17T11:12:09;7.03;;;1.90;;
52858;SDS011;38721;53.098;6.596;2023-05-17T11:17:16;6.82;;;2.00;;
52858;SDS011;38721;53.098;6.596;2023-05-17T11:19:48;9.88;;;2.60;;
52858;SDS011;38721;53.098;6.596;2023-05-17T11:22:23;9.02;;;2.15;;
52858;SDS011;38721;53.098;6.596;2023-05-17T11:24:50;7.32;;;1.90;;
52858;SDS011;38721;53.098;6.596;2023-05-17T11:27:18;12.32;;;2.42;;
52858;SDS011;38721;53.098;6.596;2023-05-17T11:29:45;14.50;;;2.72;;
52858;SDS011;38721;53.098;6.596;2023-05-17T11:32:14;9.13;;;2.58;;
52858;SDS011;38721;53.098;6.596;2023-05-17T11:34:40;9.55;;;2.10;;
52858;SDS011;38721;53.098;6.596;2023-05-17T11:37:09;10.00;;;2.25;;
52858;SDS011;38721;53.098;6.596;2023-05-17T11:39:35;6.25;;;2.10;;
52858;SDS011;38721;53.098;6.596;2023-05-17T11:42:01;7.95;;;2.17;;
52858;SDS011;38721;53.098;6.596;2023-05-17T11:44:33;9.98;;;2.35;;
52858;SDS011;38721;53.098;6.596;2023-05-17T11:49:30;8.50;;;2.10;;
52858;SDS011;38721;53.098;6.596;2023-05-17T11:51:57;12.60;;;2.00;;
52858;SDS011;38721;53.098;6.596;2023-05-17T11:54:24;7.78;;;2.53;;
52858;SDS011;38721;53.098;6.596;2023-05-17T11:56:51;11.55;;;2.25;;
52858;SDS011;38721;53.098;6.596;2023-05-17T11:59:18;8.63;;;2.17;;
52858;SDS011;38721;53.098;6.596;2023-05-17T12:01:45;7.30;;;2.00;;
52858;SDS011;38721;53.098;6.596;2023-05-17T12:04:11;7.55;;;2.13;;
52858;SDS011;38721;53.098;6.596;2023-05-17T12:06:37;8.35;;;2.08;;
52858;SDS011;38721;53.098;6.596;2023-05-17T12:09:03;8.02;;;2.25;;
52858;SDS011;38721;53.098;6.596;2023-05-17T12:11:34;11.15;;;2.22;;
52858;SDS011;38721;53.098;6.596;2023-05-17T12:14:00;10.85;;;1.85;;
52858;SDS011;38721;53.098;6.596;2023-05-17T12:16:26;9.98;;;2.20;;
52858;SDS011;38721;53.098;6.596;2023-05-17T12:18:54;11.45;;;2.30;;
52858;SDS011;38721;53.098;6.596;2023-05-17T12:21:22;9.00;;;2.35;;
52858;SDS011;38721;53.098;6.596;2023-05-17T12:23:50;5.85;;;1.85;;
52858;SDS011;38721;53.098;6.596;2023-05-17T12:26:17;7.00;;;2.20;;
52858;SDS011;38721;53.098;6.596;2023-05-17T12:28:55;12.40;;;2.55;;
52858;SDS011;38721;53.098;6.596;2023-05-17T12:31:31;10.40;;;2.20;;
52858;SDS011;38721;53.098;6.596;2023-05-17T12:34:00;10.15;;;2.47;;
52858;SDS011;38721;53.098;6.596;2023-05-17T12:36:27;9.98;;;2.05;;
52858;SDS011;38721;53.098;6.596;2023-05-17T12:38:54;11.15;;;2.00;;
52858;SDS011;38721;53.098;6.596;2023-05-17T12:41:20;7.47;;;2.20;;
52858;SDS011;38721;53.098;6.596;2023-05-17T12:43:50;6.68;;;2.00;;
52858;SDS011;38721;53.098;6.596;2023-05-17T12:46:17;11.15;;;2.15;;
52858;SDS011;38721;53.098;6.596;2023-05-17T12:48:44;8.23;;;2.15;;
52858;SDS011;38721;53.098;6.596;2023-05-17T12:51:18;8.80;;;2.05;;
52858;SDS011;38721;53.098;6.596;2023-05-17T12:53:51;7.55;;;2.10;;
52858;SDS011;38721;53.098;6.596;2023-05-17T12:56:22;6.65;;;1.90;;
52858;SDS011;38721;53.098;6.596;2023-05-17T12:59:10;16.08;;;2.30;;
52858;SDS011;38721;53.098;6.596;2023-05-17T13:01:44;6.60;;;2.03;;
52858;SDS011;38721;53.098;6.596;2023-05-17T13:04:12;13.07;;;2.85;;
52858;SDS011;38721;53.098;6.596;2023-05-17T13:09:13;10.35;;;2.38;;
52858;SDS011;38721;53.098;6.596;2023-05-17T13:11:48;12.65;;;2.55;;
52858;SDS011;38721;53.098;6.596;2023-05-17T13:14:38;8.38;;;1.95;;
52858;SDS011;38721;53.098;6.596;2023-05-17T13:17:06;5.43;;;1.70;;
52858;SDS011;38721;53.098;6.596;2023-05-17T13:19:36;10.32;;;2.30;;
52858;SDS011;38721;53.098;6.596;2023-05-17T13:22:03;9.27;;;2.60;;
52858;SDS011;38721;53.098;6.596;2023-05-17T13:24:32;9.40;;;2.28;;
52858;SDS011;38721;53.098;6.596;2023-05-17T13:26:59;8.48;;;2.10;;
52858;SDS011;38721;53.098;6.596;2023-05-17T13:29:25;8.98;;;2.33;;
52858;SDS011;38721;53.098;6.596;2023-05-17T13:31:52;11.60;;;2.47;;
52858;SDS011;38721;53.098;6.596;2023-05-17T13:34:17;9.10;;;1.90;;
52858;SDS011;38721;53.098;6.596;2023-05-17T13:36:45;9.90;;;2.10;;
52858;SDS011;38721;53.098;6.596;2023-05-17T13:39:11;7.13;;;2.22;;
52858;SDS011;38721;53.098;6.596;2023-05-17T13:41:37;8.95;;;2.53;;
52858;SDS011;38721;53.098;6.596;2023-05-17T13:44:03;8.95;;;2.30;;
52858;SDS011;38721;53.098;6.596;2023-05-17T13:46:31;7.88;;;1.90;;
52858;SDS011;38721;53.098;6.596;2023-05-17T13:48:57;8.00;;;2.17;;
52858;SDS011;38721;53.098;6.596;2023-05-17T13:51:23;7.30;;;1.92;;
52858;SDS011;38721;53.098;6.596;2023-05-17T13:53:49;8.70;;;1.98;;
52858;SDS011;38721;53.098;6.596;2023-05-17T13:56:15;6.85;;;2.10;;
52858;SDS011;38721;53.098;6.596;2023-05-17T13:58:41;10.82;;;2.10;;
52858;SDS011;38721;53.098;6.596;2023-05-17T14:01:07;7.57;;;2.13;;
52858;SDS011;38721;53.098;6.596;2023-05-17T14:03:33;6.18;;;1.48;;
52858;SDS011;38721;53.098;6.596;2023-05-17T14:06:01;7.63;;;1.98;;
52858;SDS011;38721;53.098;6.596;2023-05-17T14:08:27;7.45;;;2.05;;
52858;SDS011;38721;53.098;6.596;2023-05-17T14:10:53;6.43;;;1.90;;
52858;SDS011;38721;53.098;6.596;2023-05-17T14:13:19;9.73;;;1.85;;
52858;SDS011;38721;53.098;6.596;2023-05-17T14:15:45;9.70;;;2.20;;
52858;SDS011;38721;53.098;6.596;2023-05-17T14:18:13;9.88;;;2.33;;
52858;SDS011;38721;53.098;6.596;2023-05-17T14:20:39;8.73;;;1.77;;
52858;SDS011;38721;53.098;6.596;2023-05-17T14:23:04;11.32;;;2.08;;
52858;SDS011;38721;53.098;6.596;2023-05-17T14:25:30;6.82;;;1.90;;
52858;SDS011;38721;53.098;6.596;2023-05-17T14:27:56;6.45;;;1.70;;
52858;SDS011;38721;53.098;6.596;2023-05-17T14:30:22;7.40;;;2.08;;
52858;SDS011;38721;53.098;6.596;2023-05-17T14:32:47;8.13;;;2.25;;
52858;SDS011;38721;53.098;6.596;2023-05-17T14:35:13;7.40;;;2.65;;
52858;SDS011;38721;53.098;6.596;2023-05-17T14:37:42;10.27;;;2.00;;
52858;SDS011;38721;53.098;6.596;2023-05-17T14:40:11;8.00;;;1.85;;
52858;SDS011;38721;53.098;6.596;2023-05-17T14:42:37;8.18;;;2.00;;
52858;SDS011;38721;53.098;6.596;2023-05-17T14:45:03;7.53;;;1.83;;
52858;SDS011;38721;53.098;6.596;2023-05-17T14:47:29;6.25;;;1.67;;
52858;SDS011;38721;53.098;6.596;2023-05-17T14:49:55;10.30;;;2.03;;
52858;SDS011;38721;53.098;6.596;2023-05-17T14:52:21;7.28;;;1.85;;
52858;SDS011;38721;53.098;6.596;2023-05-17T14:54:46;7.47;;;1.77;;
52858;SDS011;38721;53.098;6.596;2023-05-17T14:57:12;6.40;;;1.90;;
52858;SDS011;38721;53.098;6.596;2023-05-17T14:59:38;7.72;;;1.80;;
52858;SDS011;38721;53.098;6.596;2023-05-17T15:02:04;5.72;;;1.80;;